sensor_id;sensor_type;location;lat;lon;timestamp;P1;durP1;ratioP1;P2;durP2;ratioP2
74912;SDS011;63878;55.624;37.304;2023-05-14T00:05:34;4.55;;;2.10;;
74912;SDS011;63878;55.624;37.304;2023-05-14T00:15:35;3.97;;;2.00;;
74912;SDS011;63878;55.624;37.304;2023-05-14T00:25:35;2.92;;;1.70;;
74912;SDS011;63878;55.624;37.304;2023-05-14T00:35:36;3.70;;;1.80;;
74912;SDS011;63878;55.624;37.304;2023-05-14T00:45:37;5.50;;;1.95;;
74912;SDS011;63878;55.624;37.304;2023-05-14T00:55:39;4.25;;;2.17;;
74912;SDS011;63878;55.624;37.304;2023-05-14T01:16:12;3.10;;;2.20;;
74912;SDS011;63878;55.624;37.304;2023-05-14T01:26:15;3.42;;;1.95;;
74912;SDS011;63878;55.624;37.304;2023-05-14T01:36:16;3.75;;;1.95;;
74912;SDS011;63878;55.624;37.304;2023-05-14T01:46:17;4.93;;;2.22;;
74912;SDS011;63878;55.624;37.304;2023-05-14T01:56:19;5.20;;;2.53;;
74912;SDS011;63878;55.624;37.304;2023-05-14T02:06:20;7.80;;;2.40;;
74912;SDS011;63878;55.624;37.304;2023-05-14T02:16:20;4.03;;;2.60;;
74912;SDS011;63878;55.624;37.304;2023-05-14T02:26:21;5.55;;;2.72;;
74912;SDS011;63878;55.624;37.304;2023-05-14T02:36:22;5.18;;;2.50;;
74912;SDS011;63878;55.624;37.304;2023-05-14T02:46:22;3.30;;;2.33;;
74912;SDS011;63878;55.624;37.304;2023-05-14T02:56:22;3.92;;;2.40;;
74912;SDS011;63878;55.624;37.304;2023-05-14T03:06:23;2.95;;;2.33;;
74912;SDS011;63878;55.624;37.304;2023-05-14T03:16:23;3.95;;;2.50;;
74912;SDS011;63878;55.624;37.304;2023-05-14T03:26:24;3.63;;;2.03;;
74912;SDS011;63878;55.624;37.304;2023-05-14T03:36:24;4.13;;;2.47;;
74912;SDS011;63878;55.624;37.304;2023-05-14T03:46:25;4.07;;;2.15;;
74912;SDS011;63878;55.624;37.304;2023-05-14T03:56:26;2.97;;;2.20;;
74912;SDS011;63878;55.624;37.304;2023-05-14T04:06:26;3.70;;;1.70;;
74912;SDS011;63878;55.624;37.304;2023-05-14T04:16:27;2.93;;;2.00;;
74912;SDS011;63878;55.624;37.304;2023-05-14T04:26:27;3.85;;;1.85;;
74912;SDS011;63878;55.624;37.304;2023-05-14T04:36:28;4.55;;;2.30;;
74912;SDS011;63878;55.624;37.304;2023-05-14T04:46:28;2.10;;;1.65;;
74912;SDS011;63878;55.624;37.304;2023-05-14T04:56:29;3.27;;;1.80;;
74912;SDS011;63878;55.624;37.304;2023-05-14T05:06:29;3.75;;;2.28;;
74912;SDS011;63878;55.624;37.304;2023-05-14T05:16:30;5.43;;;1.92;;
74912;SDS011;63878;55.624;37.304;2023-05-14T05:26:30;6.32;;;2.15;;
74912;SDS011;63878;55.624;37.304;2023-05-14T05:36:31;2.80;;;2.00;;
74912;SDS011;63878;55.624;37.304;2023-05-14T05:46:32;3.13;;;2.20;;
74912;SDS011;63878;55.624;37.304;2023-05-14T05:56:32;3.60;;;2.20;;
74912;SDS011;63878;55.624;37.304;2023-05-14T06:06:33;2.97;;;1.70;;
74912;SDS011;63878;55.624;37.304;2023-05-14T06:16:33;5.50;;;2.10;;
74912;SDS011;63878;55.624;37.304;2023-05-14T06:26:34;4.47;;;1.73;;
74912;SDS011;63878;55.624;37.304;2023-05-14T06:36:34;2.78;;;1.88;;
74912;SDS011;63878;55.624;37.304;2023-05-14T06:46:35;2.63;;;1.58;;
74912;SDS011;63878;55.624;37.304;2023-05-14T06:56:36;2.03;;;1.10;;
74912;SDS011;63878;55.624;37.304;2023-05-14T07:06:37;2.53;;;1.17;;
74912;SDS011;63878;55.624;37.304;2023-05-14T07:16:38;3.27;;;1.20;;
74912;SDS011;63878;55.624;37.304;2023-05-14T07:26:38;3.00;;;1.50;;
74912;SDS011;63878;55.624;37.304;2023-05-14T07:36:39;3.23;;;1.57;;
74912;SDS011;63878;55.624;37.304;2023-05-14T07:46:39;1.60;;;1.00;;
74912;SDS011;63878;55.624;37.304;2023-05-14T07:56:40;3.65;;;1.40;;
74912;SDS011;63878;55.624;37.304;2023-05-14T08:06:40;3.20;;;1.20;;
74912;SDS011;63878;55.624;37.304;2023-05-14T08:16:41;2.55;;;1.45;;
74912;SDS011;63878;55.624;37.304;2023-05-14T08:26:42;2.50;;;1.10;;
74912;SDS011;63878;55.624;37.304;2023-05-14T08:36:42;1.77;;;0.80;;
74912;SDS011;63878;55.624;37.304;2023-05-14T08:46:43;1.98;;;1.13;;
74912;SDS011;63878;55.624;37.304;2023-05-14T08:56:44;2.00;;;1.50;;
74912;SDS011;63878;55.624;37.304;2023-05-14T09:06:45;7.75;;;1.48;;
74912;SDS011;63878;55.624;37.304;2023-05-14T09:16:49;4.68;;;1.77;;
74912;SDS011;63878;55.624;37.304;2023-05-14T09:26:55;2.25;;;1.20;;
74912;SDS011;63878;55.624;37.304;2023-05-14T09:36:57;3.47;;;1.58;;
74912;SDS011;63878;55.624;37.304;2023-05-14T09:46:58;4.75;;;1.90;;
74912;SDS011;63878;55.624;37.304;2023-05-14T09:56:58;3.57;;;1.43;;
74912;SDS011;63878;55.624;37.304;2023-05-14T10:06:59;3.40;;;1.27;;
74912;SDS011;63878;55.624;37.304;2023-05-14T10:17:02;3.03;;;1.50;;
74912;SDS011;63878;55.624;37.304;2023-05-14T10:27:05;4.78;;;2.58;;
74912;SDS011;63878;55.624;37.304;2023-05-14T10:37:22;6.28;;;1.98;;
74912;SDS011;63878;55.624;37.304;2023-05-14T10:47:25;1.23;;;1.10;;
74912;SDS011;63878;55.624;37.304;2023-05-14T10:57:26;2.13;;;1.33;;
74912;SDS011;63878;55.624;37.304;2023-05-14T11:07:30;2.15;;;1.27;;
74912;SDS011;63878;55.624;37.304;2023-05-14T11:17:33;1.40;;;1.20;;
74912;SDS011;63878;55.624;37.304;2023-05-14T11:27:36;4.15;;;1.35;;
74912;SDS011;63878;55.624;37.304;2023-05-14T11:37:38;2.63;;;1.40;;
74912;SDS011;63878;55.624;37.304;2023-05-14T11:47:39;3.92;;;1.33;;
74912;SDS011;63878;55.624;37.304;2023-05-14T11:57:41;1.40;;;1.30;;
74912;SDS011;63878;55.624;37.304;2023-05-14T12:07:45;2.50;;;1.10;;
74912;SDS011;63878;55.624;37.304;2023-05-14T12:17:49;2.42;;;1.10;;
74912;SDS011;63878;55.624;37.304;2023-05-14T12:27:50;2.72;;;1.20;;
74912;SDS011;63878;55.624;37.304;2023-05-14T12:37:50;1.63;;;1.38;;
74912;SDS011;63878;55.624;37.304;2023-05-14T12:47:51;2.92;;;1.70;;
74912;SDS011;63878;55.624;37.304;2023-05-14T12:57:51;1.38;;;0.93;;
74912;SDS011;63878;55.624;37.304;2023-05-14T13:07:53;2.05;;;1.33;;
74912;SDS011;63878;55.624;37.304;2023-05-14T13:17:53;1.67;;;1.10;;
74912;SDS011;63878;55.624;37.304;2023-05-14T13:27:54;2.40;;;1.10;;
74912;SDS011;63878;55.624;37.304;2023-05-14T13:37:55;3.25;;;0.98;;
74912;SDS011;63878;55.624;37.304;2023-05-14T13:47:55;4.67;;;1.07;;
74912;SDS011;63878;55.624;37.304;2023-05-14T13:57:56;1.50;;;1.00;;
74912;SDS011;63878;55.624;37.304;2023-05-14T14:07:56;2.30;;;0.88;;
74912;SDS011;63878;55.624;37.304;2023-05-14T14:17:57;4.03;;;1.30;;
74912;SDS011;63878;55.624;37.304;2023-05-14T14:27:57;2.60;;;1.03;;
74912;SDS011;63878;55.624;37.304;2023-05-14T14:37:58;1.60;;;1.10;;
74912;SDS011;63878;55.624;37.304;2023-05-14T14:48:21;3.88;;;1.00;;
74912;SDS011;63878;55.624;37.304;2023-05-14T14:58:28;2.88;;;1.30;;
74912;SDS011;63878;55.624;37.304;2023-05-14T15:08:29;2.83;;;1.80;;
74912;SDS011;63878;55.624;37.304;2023-05-14T15:18:29;2.05;;;0.90;;
74912;SDS011;63878;55.624;37.304;2023-05-14T15:28:30;1.95;;;1.33;;
74912;SDS011;63878;55.624;37.304;2023-05-14T15:38:30;2.42;;;1.40;;
74912;SDS011;63878;55.624;37.304;2023-05-14T15:48:31;2.33;;;1.30;;
74912;SDS011;63878;55.624;37.304;2023-05-14T15:58:31;5.28;;;1.15;;
74912;SDS011;63878;55.624;37.304;2023-05-14T16:08:32;1.15;;;0.60;;
74912;SDS011;63878;55.624;37.304;2023-05-14T16:18:32;2.75;;;0.90;;
74912;SDS011;63878;55.624;37.304;2023-05-14T16:28:33;3.17;;;1.40;;
74912;SDS011;63878;55.624;37.304;2023-05-14T16:38:34;3.83;;;1.48;;
74912;SDS011;63878;55.624;37.304;2023-05-14T16:48:35;5.13;;;2.22;;
74912;SDS011;63878;55.624;37.304;2023-05-14T16:58:35;3.40;;;1.50;;
74912;SDS011;63878;55.624;37.304;2023-05-14T17:08:35;4.05;;;1.48;;
74912;SDS011;63878;55.624;37.304;2023-05-14T17:18:36;1.85;;;1.48;;
74912;SDS011;63878;55.624;37.304;2023-05-14T17:28:37;6.65;;;1.98;;
74912;SDS011;63878;55.624;37.304;2023-05-14T17:38:37;3.27;;;1.40;;
74912;SDS011;63878;55.624;37.304;2023-05-14T17:48:38;2.47;;;1.43;;
74912;SDS011;63878;55.624;37.304;2023-05-14T17:58:38;5.25;;;2.38;;
74912;SDS011;63878;55.624;37.304;2023-05-14T18:08:39;5.88;;;2.67;;
74912;SDS011;63878;55.624;37.304;2023-05-14T18:18:39;5.90;;;2.05;;
74912;SDS011;63878;55.624;37.304;2023-05-14T18:28:40;3.70;;;3.40;;
74912;SDS011;63878;55.624;37.304;2023-05-14T18:38:40;4.38;;;3.58;;
74912;SDS011;63878;55.624;37.304;2023-05-14T18:48:41;3.60;;;3.20;;
74912;SDS011;63878;55.624;37.304;2023-05-14T18:58:41;4.80;;;3.20;;
74912;SDS011;63878;55.624;37.304;2023-05-14T19:08:42;4.00;;;3.20;;
74912;SDS011;63878;55.624;37.304;2023-05-14T19:18:43;7.90;;;2.90;;
74912;SDS011;63878;55.624;37.304;2023-05-14T19:28:43;4.88;;;3.10;;
74912;SDS011;63878;55.624;37.304;2023-05-14T19:38:44;7.93;;;3.17;;
74912;SDS011;63878;55.624;37.304;2023-05-14T19:48:44;5.25;;;3.20;;
74912;SDS011;63878;55.624;37.304;2023-05-14T19:58:45;5.43;;;2.90;;
74912;SDS011;63878;55.624;37.304;2023-05-14T20:08:45;3.65;;;2.38;;
74912;SDS011;63878;55.624;37.304;2023-05-14T20:18:46;7.32;;;3.55;;
74912;SDS011;63878;55.624;37.304;2023-05-14T20:28:46;7.72;;;3.00;;
74912;SDS011;63878;55.624;37.304;2023-05-14T20:38:47;6.32;;;3.20;;
74912;SDS011;63878;55.624;37.304;2023-05-14T20:48:48;8.80;;;3.63;;
74912;SDS011;63878;55.624;37.304;2023-05-14T20:58:48;7.53;;;2.90;;
74912;SDS011;63878;55.624;37.304;2023-05-14T21:08:49;5.97;;;3.17;;
74912;SDS011;63878;55.624;37.304;2023-05-14T21:18:50;4.47;;;2.75;;
74912;SDS011;63878;55.624;37.304;2023-05-14T21:28:50;3.53;;;2.10;;
74912;SDS011;63878;55.624;37.304;2023-05-14T21:38:51;5.13;;;2.35;;
74912;SDS011;63878;55.624;37.304;2023-05-14T21:48:52;6.72;;;2.25;;
74912;SDS011;63878;55.624;37.304;2023-05-14T21:58:53;4.07;;;2.47;;
74912;SDS011;63878;55.624;37.304;2023-05-14T22:08:53;5.95;;;2.40;;
74912;SDS011;63878;55.624;37.304;2023-05-14T22:18:54;4.68;;;2.45;;
74912;SDS011;63878;55.624;37.304;2023-05-14T22:28:55;4.00;;;2.67;;
74912;SDS011;63878;55.624;37.304;2023-05-14T22:38:56;4.63;;;2.40;;
74912;SDS011;63878;55.624;37.304;2023-05-14T22:48:56;4.70;;;2.50;;
74912;SDS011;63878;55.624;37.304;2023-05-14T22:58:57;7.30;;;3.05;;
74912;SDS011;63878;55.624;37.304;2023-05-14T23:08:58;9.27;;;3.13;;
74912;SDS011;63878;55.624;37.304;2023-05-14T23:18:59;7.80;;;3.00;;
74912;SDS011;63878;55.624;37.304;2023-05-14T23:28:59;7.57;;;3.15;;
74912;SDS011;63878;55.624;37.304;2023-05-14T23:39:00;8.50;;;3.22;;
74912;SDS011;63878;55.624;37.304;2023-05-14T23:49:00;5.97;;;3.20;;
74912;SDS011;63878;55.624;37.304;2023-05-14T23:59:01;11.15;;;3.55;;
